TimeCDT,TemperatureF,Dew PointF,Humidity,Sea Level PressureIn,VisibilityMPH,Wind Direction,Wind SpeedMPH,Gust SpeedMPH,PrecipitationIn,Events,Conditions,WindDirDegrees,DateUTC
12:15 AM,77.0,68.0,74,30.05,10.0,SSE,5.8,-,N/A,,Clear,150,2013-08-28 05:15:00
12:35 AM,76.5,68.0,75,30.04,10.0,SSE,4.6,-,N/A,,Clear,160,2013-08-28 05:35:00
12:55 AM,76.1,67.8,75,30.05,10.0,South,4.6,-,N/A,,Clear,170,2013-08-28 05:55:00
1:15 AM,75.9,67.5,75,30.04,10.0,South,4.6,-,N/A,,Clear,190,2013-08-28 06:15:00
1:35 AM,75.6,67.5,76,30.04,10.0,South,4.6,-,N/A,,Clear,170,2013-08-28 06:35:00
1:55 AM,75.2,67.5,77,30.05,10.0,South,3.5,-,N/A,,Clear,170,2013-08-28 06:55:00
2:15 AM,74.8,67.6,78,30.04,10.0,SSE,4.6,-,N/A,,Clear,160,2013-08-28 07:15:00
2:35 AM,74.5,67.8,80,30.04,10.0,SSE,3.5,-,N/A,,Clear,160,2013-08-28 07:35:00
2:55 AM,74.3,67.6,80,30.04,10.0,SSE,3.5,-,N/A,,Clear,150,2013-08-28 07:55:00
3:15 AM,73.8,67.3,80,30.04,10.0,SE,3.5,-,N/A,,Clear,140,2013-08-28 08:15:00
3:35 AM,73.8,66.7,79,30.04,10.0,SSE,4.6,-,N/A,,Clear,150,2013-08-28 08:35:00
3:55 AM,73.8,66.6,78,30.03,10.0,South,3.5,-,N/A,,Clear,180,2013-08-28 08:55:00
4:15 AM,72.7,66.4,81,30.03,10.0,Calm,Calm,-,N/A,,Clear,0,2013-08-28 09:15:00
4:35 AM,72.5,66.2,81,30.04,10.0,Calm,Calm,-,N/A,,Clear,0,2013-08-28 09:35:00
4:55 AM,72.7,66.4,81,30.04,10.0,Calm,Calm,-,N/A,,Clear,0,2013-08-28 09:55:00
5:15 AM,72.1,66.2,82,30.04,10.0,Calm,Calm,-,N/A,,Clear,0,2013-08-28 10:15:00
5:35 AM,71.6,66.2,83,30.05,10.0,SE,3.5,-,N/A,,Clear,130,2013-08-28 10:35:00
5:55 AM,72.1,66.4,82,30.05,10.0,SSE,3.5,-,N/A,,Clear,150,2013-08-28 10:55:00
6:15 AM,72.0,66.4,83,30.05,10.0,Calm,Calm,-,N/A,,Clear,0,2013-08-28 11:15:00
6:35 AM,71.6,66.4,84,30.06,10.0,Calm,Calm,-,N/A,,Clear,0,2013-08-28 11:35:00
6:55 AM,71.6,66.6,84,30.07,10.0,SSE,3.5,-,N/A,,Clear,160,2013-08-28 11:55:00
7:15 AM,72.1,66.7,83,30.08,10.0,Calm,Calm,-,N/A,,Clear,0,2013-08-28 12:15:00
7:35 AM,72.7,67.1,83,30.08,10.0,Calm,Calm,-,N/A,,Clear,0,2013-08-28 12:35:00
7:55 AM,73.9,67.3,80,30.09,10.0,Calm,Calm,-,N/A,,Clear,0,2013-08-28 12:55:00
8:15 AM,76.1,68.0,76,30.09,5.0,SSE,4.6,-,N/A,,Haze,160,2013-08-28 13:15:00
8:35 AM,77.4,68.0,73,30.10,10.0,South,4.6,-,N/A,,Clear,170,2013-08-28 13:35:00
8:55 AM,78.4,68.2,71,30.10,10.0,South,8.1,-,N/A,,Clear,190,2013-08-28 13:55:00
9:15 AM,80.1,68.2,67,30.11,10.0,SSW,8.1,-,N/A,,Clear,200,2013-08-28 14:15:00
9:35 AM,81.5,67.5,62,30.11,10.0,SSW,8.1,-,N/A,,Clear,210,2013-08-28 14:35:00
9:55 AM,82.8,67.3,59,30.11,10.0,South,9.2,-,N/A,,Clear,180,2013-08-28 14:55:00
10:15 AM,84.9,67.3,55,30.11,10.0,SSW,9.2,-,N/A,,Clear,210,2013-08-28 15:15:00
10:35 AM,86.2,66.6,52,30.11,10.0,South,10.4,-,N/A,,Clear,180,2013-08-28 15:35:00
10:55 AM,87.1,65.8,49,30.11,10.0,SW,8.1,-,N/A,,Clear,220,2013-08-28 15:55:00
11:15 AM,88.5,65.7,47,30.11,10.0,SSW,9.2,-,N/A,,Clear,200,2013-08-28 16:15:00
11:35 AM,89.1,65.1,45,30.11,10.0,SSW,10.4,-,N/A,,Clear,210,2013-08-28 16:35:00
11:55 AM,89.6,64.6,43,30.11,10.0,SSE,4.6,-,N/A,,Clear,160,2013-08-28 16:55:00
12:15 PM,91.2,63.7,40,30.10,10.0,SSW,9.2,16.1,N/A,,Clear,200,2013-08-28 17:15:00
12:35 PM,91.8,61.9,37,30.10,10.0,SSW,8.1,-,N/A,,Clear,200,2013-08-28 17:35:00
12:55 PM,93.2,61.0,34,30.09,10.0,SSE,9.2,-,N/A,,Scattered Clouds,160,2013-08-28 17:55:00
1:15 PM,92.3,61.0,35,30.08,10.0,SSW,11.5,-,N/A,,Scattered Clouds,200,2013-08-28 18:15:00
1:35 PM,91.9,60.6,35,30.08,10.0,SSW,6.9,-,N/A,,Scattered Clouds,200,2013-08-28 18:35:00
1:55 PM,93.4,61.0,34,30.07,10.0,SW,4.6,16.1,N/A,,Scattered Clouds,230,2013-08-28 18:55:00
2:15 PM,93.4,61.0,34,30.06,10.0,SW,5.8,-,N/A,,Scattered Clouds,230,2013-08-28 19:15:00
2:35 PM,95.2,60.6,32,30.05,10.0,SSW,9.2,17.3,N/A,,Scattered Clouds,210,2013-08-28 19:35:00
2:55 PM,93.9,61.2,33,30.04,10.0,South,6.9,-,N/A,,Clear,180,2013-08-28 19:55:00
3:15 PM,96.6,60.3,30,30.03,10.0,SW,6.9,-,N/A,,Scattered Clouds,220,2013-08-28 20:15:00
3:35 PM,96.4,59.9,30,30.02,10.0,SSE,9.2,-,N/A,,Mostly Cloudy,150,2013-08-28 20:35:00
3:55 PM,95.9,59.5,30,30.02,10.0,South,8.1,-,N/A,,Scattered Clouds,180,2013-08-28 20:55:00
4:15 PM,95.5,58.8,29,30.01,10.0,ENE,4.6,-,N/A,,Scattered Clouds,60,2013-08-28 21:15:00
4:35 PM,98.2,59.0,27,30.01,10.0,ESE,6.9,-,N/A,,Scattered Clouds,120,2013-08-28 21:35:00
4:55 PM,95.9,58.3,28,30.00,10.0,SSE,3.5,-,N/A,,Scattered Clouds,150,2013-08-28 21:55:00
5:15 PM,97.9,58.3,27,30.00,10.0,South,10.4,-,N/A,,Clear,170,2013-08-28 22:15:00
5:35 PM,95.2,58.1,29,30.00,10.0,SE,5.8,-,N/A,,Scattered Clouds,140,2013-08-28 22:35:00
5:55 PM,97.0,57.7,27,29.99,10.0,SE,5.8,-,N/A,,Clear,140,2013-08-28 22:55:00
6:15 PM,96.8,57.9,27,29.99,10.0,SSE,6.9,-,N/A,,Clear,160,2013-08-28 23:15:00
6:35 PM,96.4,57.4,27,29.99,10.0,SSW,5.8,-,N/A,,Clear,200,2013-08-28 23:35:00
6:55 PM,95.9,57.2,27,29.99,10.0,SSE,5.8,-,N/A,,Clear,150,2013-08-28 23:55:00
7:15 PM,94.6,57.0,28,29.99,10.0,SE,6.9,-,N/A,,Clear,140,2013-08-29 00:15:00
7:35 PM,93.4,57.2,30,30.00,10.0,SSE,3.5,-,N/A,,Clear,160,2013-08-29 00:35:00
7:55 PM,91.4,57.2,31,30.00,10.0,Calm,Calm,-,N/A,,Clear,0,2013-08-29 00:55:00
8:15 PM,89.8,57.0,33,30.00,10.0,SSE,3.5,-,N/A,,Clear,150,2013-08-29 01:15:00
8:35 PM,87.3,57.6,36,30.01,10.0,ESE,3.5,-,N/A,,Clear,120,2013-08-29 01:35:00
8:55 PM,86.9,58.5,38,30.01,10.0,ESE,3.5,-,N/A,,Clear,120,2013-08-29 01:55:00
9:15 PM,86.2,58.5,39,30.02,10.0,ESE,3.5,-,N/A,,Clear,120,2013-08-29 02:15:00
9:35 PM,85.3,59.0,41,30.03,10.0,ESE,4.6,-,N/A,,Clear,120,2013-08-29 02:35:00
9:55 PM,84.2,59.2,43,30.03,10.0,WSW,4.6,-,N/A,,Clear,240,2013-08-29 02:55:00
10:15 PM,83.8,59.4,43,30.04,10.0,SSW,3.5,-,N/A,,Clear,210,2013-08-29 03:15:00
10:35 PM,83.5,59.4,44,30.04,10.0,South,3.5,-,N/A,,Clear,170,2013-08-29 03:35:00
10:55 PM,82.6,59.4,45,30.04,10.0,SSE,3.5,-,N/A,,Clear,150,2013-08-29 03:55:00
11:15 PM,81.9,59.5,47,30.04,10.0,SSE,3.5,-,N/A,,Clear,150,2013-08-29 04:15:00
11:35 PM,81.5,59.5,47,30.04,10.0,SSE,3.5,-,N/A,,Clear,150,2013-08-29 04:35:00
11:55 PM,79.9,59.9,50,30.04,10.0,Calm,Calm,-,N/A,,Clear,0,2013-08-29 04:55:00